Terminal Aerodrome Forecast
Issued by NWS Sioux Falls, SD

Home | Current Version | Previous Version | Graphics & Text | Print | Product List | Glossary Off
Versions: 1 2 3 4 5 6 7 8 9 10 11 12 13 14 15 16 17 18 19 20 21 22 23 24 25 26 27 28 29 30 31 32 33 34 35 36 37 38 39

000
FTUS43 KFSD 231159 AAA
TAFSUX
TAF AMD
KSUX 231159Z 2312/2412 VRB04KT 5SM BR OVC008
     FM231400 30006KT P6SM BKN008
     FM231500 30008KT P6SM SCT010 BKN100
     FM231800 33018G25KT P6SM BKN080
     FM232100 33022G32KT P6SM BKN035
     FM240300 33022G32KT P6SM OVC030=

USA.gov is the U.S. government's official web portal to all federal, state and local government web resources and services.